EDDSLIBD

Guest
Details From EDDS - Stuttgart
To LIBD - Bari Palese Macchie
Flight Number -
Tags generated
Created
Modified
Stats Distance 559 nm / 1,036 km
Max Altitude 35,000 ft / 10,668 m
Waypoints 12
Social Downloads 4
Likes 0
Share VATSIM

Download

Looking for another format? Having issues loading an existing format? Contact us
Advertisement - Login to hide

Notes

Basic altitude profile: - Ascent Rate: 2500ft/min - Ascent Speed: 250kts - Cruise Altitude: 35000ft - Cruise Speed: 420kts - Descent Rate: 1500ft/min - Descent Speed: 250kts Options: - Use NATs: yes - Use PACOTS: yes - Use low airways: yes - Use high airways: yes

Route

EDDS KPT UL12 BZO UP187 AKADO UL613 RIVAM LIBD

ID Type Via Altitude Latitude Longitude Leg Dist Tot Dist Heading (true) Name
O EDDS APT - 0 ft / 0 m 48.68988˚ 9.22196˚ - 0 nm - Stuttgart
KPT VOR - 25,800 ft / 7,864 m 47.74583˚ 10.34972˚ 72 nm 72 nm 141° / 142° KEMPTEN VOR-DME
OTSIS FIX UL12 (AWY-HI) 35,000 ft / 10,668 m 47.10074˚ 10.84546˚ 43 nm 116 nm 152° / 153° -
ENOGO FIX UL12 (AWY-HI) 35,000 ft / 10,668 m 46.81333˚ 11.06194˚ 19 nm 135 nm 153° / 153° -
BZO NDB UL12 (AWY-HI) 35,000 ft / 10,668 m 46.46389˚ 11.32222˚ 23 nm 159 nm 153° / 153° BOLZANO NDB
LAMPO FIX UP187 (AWY-HI) 35,000 ft / 10,668 m 46.10583˚ 11.70139˚ 26 nm 185 nm 144° / 144° -
AKADO FIX UP187 (AWY-HI) 35,000 ft / 10,668 m 45.33333˚ 12.50000˚ 57 nm 242 nm 144° / 144° -
BUSER FIX UL613 (AWY-HI) 35,000 ft / 10,668 m 44.10667˚ 13.64889˚ 88 nm 331 nm 146° / 147° -
LISKO FIX UL613 (AWY-HI) 35,000 ft / 10,668 m 43.57139˚ 14.13222˚ 38 nm 369 nm 147° / 147° -
DIPEP FIX UL613 (AWY-HI) 35,000 ft / 10,668 m 43.34167˚ 14.49194˚ 20 nm 390 nm 131° / 131° -
RIVAM FIX UL613 (AWY-HI) 25,500 ft / 7,772 m 42.49917˚ 15.77278˚ 75 nm 466 nm 131° / 132° -
O LIBD APT - 0 ft / 0 m 41.13787˚ 16.75832˚ 92 nm 559 nm 151° / 152° Bari Palese Macchie

Altitude Profile

Advertisement - Login to hide

Weather


0- 5 10 15 20 25 30 35+ Temperature / ° C

Clouds and Precipitation
Forecast for 2017-12-16 12:00 UTC. Updated 3 minutes ago

Ground ~20,000 ft ~40,000 ft Winds

EDDS

Details ICAO EDDS (STR)
Name Stuttgart
Region Germany - Civil
Timezone Europe/Berlin (UTC+1.0)
Stats Elevation 1,273 ft / 388 m (AMSL)
Location 48.689876° 9.221962°
Runways 1
Magnetic Variation 2.524° E

METAR

EDDS 160720Z 26003KT 7000 -SNRA BKN008 01/00 Q1006 BECMG BKN012

Decode

TAF

TAF TAF EDDS 160500Z 1606/1706 VRB03KT 9999 BKN030 PROB30 TEMPO 1606/1706 3000 -SHSN BKN010 BKN020CB PROB40 TEMPO 1609/1614 1500 SHSN BKN008 BKN015CB BECMG 1610/1612 27005KT

Decode

Departure Runways

ID Width Length Bearing (true) Bearing (mag) Surface Threshold Offset Overrun Length
07 148 ft / 45 m 10,950 ft / 3,337 m 73.96° 71.44° Concrete 981 ft / 299 m 157 ft / 48 m
25 148 ft / 45 m 10,950 ft / 3,337 m 253.99° 251.47° Concrete 0 ft / 0 m 157 ft / 48 m

LIBD

Details ICAO LIBD (BRI)
Name Bari Palese Macchie
Region Italy
Timezone Europe/Rome (UTC+1.0)
Stats Elevation 177 ft / 54 m (AMSL)
Location 41.137865° 16.758318°
Runways 1
Magnetic Variation 3.738° E

METAR

LIBD 160650Z 29009KT CAVOK 11/05 Q1005

Decode

TAF

TAF LIBD 160500Z 1606/1706 24013KT 9999 SCT030= TAF LIBP 160500Z 1606/1706 23012KT 9999 SCT030 BECMG 1608/1610 VRB05KT BECMG 1616/1618 28012KT TEMPO 1700/1706 4000 TSRA

Decode

Destination Runways

ID Width Length Bearing (true) Bearing (mag) Surface Threshold Offset Overrun Length
07 148 ft / 45 m 9,262 ft / 2,823 m 69.39° 65.65° Asphalt 1,257 ft / 383 m 0 ft / 0 m
25 148 ft / 45 m 9,262 ft / 2,823 m 249.42° 245.68° Asphalt 0 ft / 0 m 194 ft / 59 m

Approach Navaids

Runway Type Ident Frequency Range Bearing (true) Bearing (mag) Slope Elevation
07 Localiser BAP 111.35 MHz 18 nm / 33 km 69.25° 65.51° - 177 ft / 54 m (AMSL)
07 Glidescope BAP 111.35 MHz 10 nm / 19 km 69.25° 65.51° 3.32° 177 ft / 54 m (AMSL)
07 DME BAP 111.35 MHz 18 nm / 33 km - - - 183 ft / 56 m (AMSL)

Popular Alternatives